Dolphin, Virginia
Current Conditions -  °F | °C
As of 1:35 PM on Friday 31 Oct 2014 (Local Time) from KLVL Reporting Station
Broken Clouds Broken Clouds  
Wind Chill: 58°   Ceiling: 4600
Heat Index: 58°   Visibility: 10mi
Dew Point: 40°   Wind: 6mph
Humidity: 51%   Direction: 340°NNW
Pressure: 29.87"   Gusts: NA
Location:  36.85°N, 77.81°W
Report Text: KLVL 311735Z AUTO 34005KT 10SM BKN046 BKN050 15/05 A2987 RMK AO1 T01450045
Loading
Personal Weather Stations






























Interactive Weather Map
Tropical Storm Tracking
New forecast layout! Learn more

10-Day Weather Forecast

Advertisements
Track Severe Weather on mobile